createdAt,value
2022-11-29T00:01:34.578Z,21.40
2022-11-29T00:04:02.219Z,21.40
2022-11-29T00:06:32.328Z,21.40
2022-11-29T00:09:01.516Z,21.30
2022-11-29T00:11:49.921Z,21.20
2022-11-29T00:14:18.905Z,21.10
2022-11-29T00:16:49.796Z,21.30
2022-11-29T00:19:17.091Z,21.30
2022-11-29T00:21:44.019Z,21.30
2022-11-29T00:24:11.007Z,21.20
2022-11-29T00:26:38.322Z,21.20
2022-11-29T00:29:05.427Z,21.20
2022-11-29T00:31:33.700Z,21.20
2022-11-29T00:34:02.366Z,21.20
2022-11-29T00:36:29.569Z,21.10
2022-11-29T00:38:56.877Z,21.00
2022-11-29T00:41:23.728Z,20.90
2022-11-29T00:43:50.772Z,20.90
2022-11-29T00:46:17.696Z,21.00
2022-11-29T00:48:44.754Z,21.30
2022-11-29T00:51:11.735Z,21.20
2022-11-29T00:53:39.083Z,21.30
2022-11-29T00:56:06.855Z,21.10
2022-11-29T00:58:34.226Z,21.00
2022-11-29T01:01:01.209Z,21.10
2022-11-29T01:03:28.224Z,21.20
2022-11-29T01:06:05.145Z,21.20
2022-11-29T01:08:32.393Z,21.00
2022-11-29T01:11:03.301Z,21.20
2022-11-29T01:13:30.583Z,21.30
2022-11-29T01:15:58.486Z,21.30
2022-11-29T01:18:26.160Z,21.30
2022-11-29T01:21:08.198Z,21.30
2022-11-29T01:23:35.894Z,21.40
2022-11-29T01:26:09.272Z,21.50
2022-11-29T01:28:37.435Z,21.50
2022-11-29T01:31:14.663Z,21.40
2022-11-29T01:33:42.481Z,21.60
2022-11-29T01:36:10.218Z,21.60
2022-11-29T01:38:37.213Z,21.50
2022-11-29T01:41:08.110Z,21.60
2022-11-29T01:43:53.099Z,21.40
2022-11-29T01:46:20.059Z,21.50
2022-11-29T01:48:48.101Z,21.30
2022-11-29T01:51:15.195Z,21.30
2022-11-29T01:53:42.239Z,21.30
2022-11-29T01:56:10.479Z,21.30
2022-11-29T01:58:37.688Z,21.40
2022-11-29T02:01:04.640Z,21.40
2022-11-29T02:03:31.582Z,21.70
2022-11-29T02:05:59.270Z,21.40
2022-11-29T02:08:36.595Z,21.40
2022-11-29T02:11:26.469Z,21.40
2022-11-29T02:14:23.873Z,21.40
2022-11-29T02:17:24.966Z,21.30
2022-11-29T02:20:33.248Z,21.30
2022-11-29T02:23:25.737Z,21.40
2022-11-29T02:26:16.527Z,21.30
2022-11-29T02:29:14.861Z,21.30
2022-11-29T02:32:07.270Z,21.30
2022-11-29T02:35:08.295Z,21.20
2022-11-29T02:37:35.135Z,21.20
2022-11-29T02:40:13.772Z,21.10
2022-11-29T02:43:10.435Z,21.30
2022-11-29T02:46:02.881Z,21.30
2022-11-29T02:48:48.712Z,21.30
2022-11-29T02:51:31.149Z,21.30
2022-11-29T02:54:12.167Z,21.30
2022-11-29T02:56:54.244Z,21.20
2022-11-29T02:59:35.260Z,21.20
2022-11-29T03:02:28.404Z,21.40
2022-11-29T03:05:01.882Z,21.50
2022-11-29T03:07:46.967Z,21.90
2022-11-29T03:10:50.862Z,21.90
2022-11-29T03:13:34.019Z,22.10
2022-11-29T03:16:19.033Z,22.30
2022-11-29T03:18:51.946Z,22.30
2022-11-29T03:21:30.697Z,22.10
2022-11-29T03:24:04.958Z,21.90
2022-11-29T03:27:03.599Z,22.10
2022-11-29T03:29:38.455Z,22.50
2022-11-29T03:32:17.797Z,22.80
2022-11-29T03:35:25.240Z,22.60
2022-11-29T03:38:13.325Z,22.60
2022-11-29T03:40:50.340Z,22.40
2022-11-29T03:43:30.670Z,22.30
2022-11-29T03:46:05.095Z,22.20
2022-11-29T03:48:46.282Z,22.10
2022-11-29T03:51:27.148Z,21.90
2022-11-29T03:54:02.806Z,21.90
2022-11-29T03:56:37.177Z,21.80
2022-11-29T03:59:18.945Z,21.90
2022-11-29T04:02:07.326Z,21.90
2022-11-29T04:04:58.667Z,21.90
2022-11-29T04:07:25.527Z,21.80
2022-11-29T04:10:12.627Z,21.90
2022-11-29T04:13:02.221Z,21.90
2022-11-29T04:16:07.608Z,21.80
2022-11-29T04:19:06.327Z,21.80
2022-11-29T04:22:04.683Z,21.70
2022-11-29T04:24:39.497Z,21.70
2022-11-29T04:27:43.700Z,21.70
2022-11-29T04:30:23.656Z,22.00
2022-11-29T04:32:50.471Z,22.00
2022-11-29T04:35:51.966Z,21.70
2022-11-29T04:38:49.285Z,21.80
2022-11-29T04:41:24.239Z,21.70
2022-11-29T04:44:06.230Z,21.90
2022-11-29T04:46:51.744Z,21.80
2022-11-29T04:49:30.902Z,21.70
2022-11-29T04:52:19.005Z,22.00
2022-11-29T04:55:29.236Z,21.90
2022-11-29T04:58:16.331Z,22.00
2022-11-29T05:00:58.589Z,21.70
2022-11-29T05:03:57.206Z,21.70
2022-11-29T05:07:02.305Z,21.90
2022-11-29T05:09:38.505Z,21.80
2022-11-29T05:12:17.515Z,21.70
2022-11-29T05:15:05.060Z,22.00
2022-11-29T05:17:47.879Z,22.20
2022-11-29T05:20:44.293Z,22.00
2022-11-29T05:23:34.150Z,21.90
2022-11-29T05:26:16.885Z,21.90
2022-11-29T05:28:57.902Z,22.00
2022-11-29T05:31:45.998Z,22.20
2022-11-29T05:34:37.490Z,22.00
2022-11-29T05:37:26.119Z,22.10
2022-11-29T05:40:05.202Z,22.20
2022-11-29T05:43:07.022Z,22.30
2022-11-29T05:45:55.741Z,22.50
2022-11-29T05:48:45.653Z,22.60
2022-11-29T05:51:30.978Z,22.50
2022-11-29T05:54:31.841Z,22.40
2022-11-29T05:57:23.228Z,22.50
2022-11-29T05:59:51.426Z,22.40
2022-11-29T06:02:27.191Z,22.60
2022-11-29T06:05:17.750Z,22.40
2022-11-29T06:07:56.665Z,22.80
2022-11-29T06:10:26.799Z,22.80
2022-11-29T06:13:22.100Z,23.10
2022-11-29T06:16:18.432Z,22.80
2022-11-29T06:19:12.638Z,22.70
2022-11-29T06:22:08.663Z,22.80
2022-11-29T06:24:50.790Z,22.50
2022-11-29T06:27:54.373Z,22.20
2022-11-29T06:30:26.513Z,22.10
2022-11-29T06:33:05.063Z,22.50
2022-11-29T06:36:28.108Z,22.30
2022-11-29T06:38:55.268Z,22.60
2022-11-29T06:41:24.237Z,22.60
2022-11-29T06:43:51.872Z,22.10
2022-11-29T06:46:24.333Z,21.90
2022-11-29T06:49:20.664Z,22.50
2022-11-29T06:51:53.651Z,22.20
2022-11-29T06:54:20.600Z,22.30
2022-11-29T06:57:02.341Z,22.30
2022-11-29T06:59:33.022Z,22.20
2022-11-29T07:02:21.447Z,22.20
2022-11-29T07:05:00.406Z,22.00
2022-11-29T07:07:27.612Z,22.10
2022-11-29T07:10:00.842Z,21.90
2022-11-29T07:12:28.019Z,22.80
2022-11-29T07:14:55.204Z,22.50
2022-11-29T07:17:45.502Z,22.40
2022-11-29T07:20:53.536Z,22.50
2022-11-29T07:23:37.222Z,22.50
2022-11-29T07:26:29.137Z,22.20
2022-11-29T07:29:26.211Z,22.00
2022-11-29T07:32:15.278Z,22.10
2022-11-29T07:34:51.157Z,21.70
2022-11-29T07:37:36.043Z,21.70
2022-11-29T07:40:21.855Z,22.00
2022-11-29T07:43:10.420Z,21.90
2022-11-29T07:45:37.761Z,21.70
2022-11-29T07:48:05.158Z,21.50
2022-11-29T07:50:32.169Z,21.50
2022-11-29T07:53:00.059Z,21.40
2022-11-29T07:55:27.816Z,21.30
2022-11-29T07:57:54.720Z,21.80
2022-11-29T08:00:22.271Z,21.60
2022-11-29T08:02:50.896Z,21.70
2022-11-29T08:05:18.121Z,22.00
2022-11-29T08:07:46.473Z,22.20
2022-11-29T08:10:16.351Z,21.90
2022-11-29T08:12:46.415Z,22.00
2022-11-29T08:15:13.469Z,22.30
2022-11-29T08:17:40.777Z,22.40
2022-11-29T08:20:10.238Z,22.40
2022-11-29T08:22:37.615Z,22.00
2022-11-29T08:25:07.234Z,21.90
2022-11-29T08:27:35.484Z,22.00
2022-11-29T08:30:02.434Z,21.90
2022-11-29T08:32:29.677Z,21.90
2022-11-29T08:34:56.703Z,22.10
2022-11-29T08:37:23.686Z,22.20
2022-11-29T08:39:50.744Z,22.40
2022-11-29T08:42:19.016Z,22.20
2022-11-29T08:44:48.027Z,22.20
2022-11-29T08:47:33.594Z,22.00
2022-11-29T08:50:03.408Z,22.00
2022-11-29T08:52:51.072Z,22.50
2022-11-29T08:55:20.166Z,22.10
2022-11-29T08:57:51.276Z,22.10
2022-11-29T09:00:18.840Z,22.00
2022-11-29T09:02:45.824Z,22.10
2022-11-29T09:05:13.291Z,21.90
2022-11-29T09:07:40.363Z,21.60
2022-11-29T09:10:09.100Z,21.80
2022-11-29T09:12:37.109Z,22.20
2022-11-29T09:15:06.688Z,21.90
2022-11-29T09:17:33.790Z,22.00
2022-11-29T09:20:00.731Z,22.50
2022-11-29T09:22:27.802Z,22.50
2022-11-29T09:24:54.831Z,22.50
2022-11-29T09:27:21.999Z,22.30
2022-11-29T09:29:48.984Z,22.90
2022-11-29T09:32:15.954Z,22.80
2022-11-29T09:34:43.397Z,22.90
2022-11-29T09:37:10.616Z,22.50
2022-11-29T09:39:38.239Z,23.40
2022-11-29T09:42:58.744Z,23.50
2022-11-29T09:45:41.774Z,23.30
2022-11-29T09:48:29.584Z,23.60
2022-11-29T09:51:15.862Z,23.20
2022-11-29T09:54:04.917Z,22.90
2022-11-29T09:56:42.279Z,22.30
2022-11-29T09:59:17.737Z,22.30
2022-11-29T10:01:52.256Z,22.10
2022-11-29T10:04:23.104Z,22.00
2022-11-29T10:07:21.746Z,22.30
2022-11-29T10:10:04.481Z,22.70
2022-11-29T10:12:46.592Z,22.90
2022-11-29T10:15:29.405Z,22.50
2022-11-29T10:18:02.592Z,22.70
2022-11-29T10:20:36.434Z,22.70
2022-11-29T10:23:15.592Z,23.10
2022-11-29T10:25:52.302Z,23.20
2022-11-29T10:28:30.923Z,23.10
2022-11-29T10:31:08.631Z,23.20
2022-11-29T10:33:39.587Z,24.10
2022-11-29T10:36:19.634Z,24.40
2022-11-29T10:38:49.693Z,23.80
2022-11-29T10:41:22.605Z,23.30
2022-11-29T10:43:51.424Z,22.70
2022-11-29T10:46:36.073Z,23.50
2022-11-29T10:49:12.445Z,23.10
2022-11-29T10:51:40.168Z,23.10
2022-11-29T10:54:34.949Z,22.80
2022-11-29T10:57:03.028Z,22.20
2022-11-29T10:59:33.249Z,22.60
2022-11-29T11:02:02.035Z,22.80
2022-11-29T11:04:36.813Z,23.50
2022-11-29T11:07:06.167Z,24.30
2022-11-29T11:09:35.050Z,24.30
2022-11-29T11:12:11.882Z,24.00
2022-11-29T11:14:39.362Z,24.30
2022-11-29T11:17:26.557Z,23.60
2022-11-29T11:19:58.180Z,23.50
2022-11-29T11:22:26.564Z,23.70
2022-11-29T11:25:00.572Z,23.60
2022-11-29T11:27:38.888Z,23.50
2022-11-29T11:30:18.218Z,23.20
2022-11-29T11:33:23.811Z,23.20
2022-11-29T11:36:20.365Z,23.00
2022-11-29T11:38:52.436Z,23.10
2022-11-29T11:41:48.285Z,23.60
2022-11-29T11:44:52.575Z,23.30
2022-11-29T11:47:24.470Z,23.60
2022-11-29T11:50:00.326Z,23.90
2022-11-29T11:52:39.586Z,24.40
2022-11-29T11:55:23.268Z,23.90
2022-11-29T11:58:06.189Z,23.10
2022-11-29T12:01:09.657Z,23.20
2022-11-29T12:03:36.702Z,22.90
2022-11-29T12:06:25.447Z,23.20
2022-11-29T12:09:02.507Z,23.30
2022-11-29T12:11:37.624Z,23.40
2022-11-29T12:14:07.508Z,23.50
2022-11-29T12:16:39.131Z,23.00
2022-11-29T12:19:30.626Z,22.60
2022-11-29T12:22:01.921Z,23.20
2022-11-29T12:24:33.179Z,23.40
2022-11-29T12:27:04.401Z,23.30
2022-11-29T12:29:34.547Z,23.60
2022-11-29T12:32:13.628Z,23.60
2022-11-29T12:34:43.712Z,23.90
2022-11-29T12:37:54.168Z,24.20
2022-11-29T12:40:44.532Z,23.80
2022-11-29T12:43:37.218Z,22.50
2022-11-29T12:46:28.802Z,22.70
2022-11-29T12:49:26.263Z,23.60
2022-11-29T12:52:18.441Z,24.20
2022-11-29T12:55:26.372Z,24.00
2022-11-29T12:58:20.419Z,24.20
2022-11-29T13:00:53.999Z,23.90
2022-11-29T13:03:33.491Z,23.40
2022-11-29T13:06:21.506Z,23.00
2022-11-29T13:08:57.134Z,22.80
2022-11-29T13:11:35.260Z,22.80
2022-11-29T13:14:34.778Z,22.90
2022-11-29T13:17:03.986Z,22.70
2022-11-29T13:20:09.196Z,22.90
2022-11-29T13:22:53.255Z,23.40
2022-11-29T13:25:46.146Z,22.70
2022-11-29T13:28:26.240Z,22.40
2022-11-29T13:31:00.247Z,22.10
2022-11-29T13:33:55.700Z,22.40
2022-11-29T13:36:29.571Z,22.90
2022-11-29T13:39:02.696Z,22.70
2022-11-29T13:41:48.142Z,22.50
2022-11-29T13:44:38.265Z,22.30
2022-11-29T13:47:13.857Z,22.70
2022-11-29T13:50:07.046Z,22.40
2022-11-29T13:53:00.105Z,22.20
2022-11-29T13:55:31.313Z,22.50
2022-11-29T13:58:16.711Z,23.00
2022-11-29T14:00:44.472Z,23.10
2022-11-29T14:03:31.174Z,22.70
2022-11-29T14:06:26.813Z,22.30
2022-11-29T14:11:50.727Z,22.50
2022-11-29T14:14:20.451Z,22.60
2022-11-29T14:16:51.316Z,22.70
2022-11-29T14:19:33.135Z,22.50
2022-11-29T14:22:06.434Z,23.00
2022-11-29T14:24:36.511Z,23.30
2022-11-29T14:27:06.146Z,23.20
2022-11-29T14:29:51.043Z,23.10
2022-11-29T14:32:40.297Z,22.50
2022-11-29T14:35:15.658Z,22.60
2022-11-29T14:38:13.701Z,22.90
2022-11-29T14:40:40.764Z,23.20
2022-11-29T14:43:41.273Z,23.40
2022-11-29T14:46:16.553Z,23.60
2022-11-29T14:49:06.080Z,22.80
2022-11-29T14:51:34.282Z,22.50
2022-11-29T14:54:15.370Z,22.90
2022-11-29T14:56:44.519Z,23.10
2022-11-29T14:59:45.655Z,23.20
2022-11-29T15:02:32.611Z,23.20
2022-11-29T15:05:22.914Z,22.60
2022-11-29T15:08:32.229Z,22.80
2022-11-29T15:11:34.791Z,22.60
2022-11-29T15:14:14.734Z,22.70
2022-11-29T15:16:44.389Z,22.80
2022-11-29T15:20:03.295Z,22.70
2022-11-29T15:22:39.162Z,23.10
2022-11-29T15:25:17.524Z,22.90
2022-11-29T15:27:59.688Z,22.80
2022-11-29T15:30:36.558Z,22.90
2022-11-29T15:33:06.209Z,23.20
2022-11-29T15:35:35.481Z,22.70
2022-11-29T15:38:03.064Z,22.30
2022-11-29T15:40:35.814Z,22.40
2022-11-29T15:43:14.428Z,22.60
2022-11-29T15:45:47.875Z,22.90
2022-11-29T15:48:20.510Z,22.90
2022-11-29T15:51:04.288Z,22.90
2022-11-29T15:53:47.393Z,22.80
2022-11-29T15:56:32.579Z,22.90
2022-11-29T15:59:28.107Z,22.70
2022-11-29T16:01:57.383Z,22.80
2022-11-29T16:04:24.907Z,23.10
2022-11-29T16:06:52.400Z,23.30
2022-11-29T16:09:26.639Z,23.10
2022-11-29T16:11:53.728Z,22.90
2022-11-29T16:14:28.658Z,22.60
2022-11-29T16:16:59.922Z,22.80
2022-11-29T16:19:37.441Z,22.70
2022-11-29T16:22:10.472Z,22.70
2022-11-29T16:24:48.429Z,22.50
2022-11-29T16:27:15.578Z,22.30
2022-11-29T16:29:45.564Z,22.90
2022-11-29T16:32:34.681Z,23.10
2022-11-29T16:35:06.734Z,23.10
2022-11-29T16:37:40.709Z,23.40
2022-11-29T16:40:20.674Z,22.90
2022-11-29T16:43:40.879Z,23.30
2022-11-29T16:46:26.948Z,23.10
2022-11-29T16:48:56.067Z,22.40
2022-11-29T16:51:48.196Z,22.70
2022-11-29T16:54:33.997Z,22.30
2022-11-29T16:57:05.250Z,22.60
2022-11-29T16:59:32.871Z,23.40
2022-11-29T17:01:59.822Z,23.60
2022-11-29T17:04:26.755Z,23.60
2022-11-29T17:06:56.636Z,23.10
2022-11-29T17:09:27.368Z,23.20
2022-11-29T17:11:55.725Z,23.30
2022-11-29T17:14:23.168Z,23.20
2022-11-29T17:16:50.399Z,23.20
2022-11-29T17:19:25.314Z,23.20
2022-11-29T17:21:53.120Z,23.70
2022-11-29T17:24:21.802Z,23.50
2022-11-29T17:26:49.131Z,23.90
2022-11-29T17:29:17.287Z,24.40
2022-11-29T17:31:45.284Z,24.20
2022-11-29T17:34:13.051Z,24.50
2022-11-29T17:36:40.925Z,24.40
2022-11-29T17:39:08.322Z,23.80
2022-11-29T17:41:35.459Z,23.20
2022-11-29T17:44:02.547Z,23.00
2022-11-29T17:46:32.267Z,23.50
2022-11-29T17:49:01.042Z,23.40
2022-11-29T17:51:51.032Z,23.50
2022-11-29T17:54:16.084Z,24.20
2022-11-29T17:56:43.061Z,23.70
2022-11-29T17:59:09.968Z,23.60
2022-11-29T18:01:37.009Z,23.40
2022-11-29T18:04:06.254Z,23.30
2022-11-29T18:06:40.388Z,23.10
2022-11-29T18:09:09.564Z,23.10
2022-11-29T18:11:49.911Z,23.00
2022-11-29T18:14:20.075Z,23.30
2022-11-29T18:16:47.254Z,23.30
2022-11-29T18:19:17.715Z,23.40
2022-11-29T18:21:44.826Z,22.80
2022-11-29T18:24:12.042Z,23.30
2022-11-29T18:26:39.712Z,23.30
2022-11-29T18:29:07.938Z,23.00
2022-11-29T18:31:37.753Z,22.80
2022-11-29T18:34:07.256Z,22.50
2022-11-29T18:36:37.212Z,22.40
2022-11-29T18:39:09.908Z,22.40
2022-11-29T18:41:37.996Z,22.10
2022-11-29T18:44:09.924Z,21.70
2022-11-29T18:46:38.780Z,22.10
2022-11-29T18:49:08.230Z,22.40
2022-11-29T18:51:36.109Z,22.50
2022-11-29T18:54:04.291Z,22.40
2022-11-29T18:56:34.524Z,22.10
2022-11-29T18:59:08.634Z,21.80
2022-11-29T19:01:40.752Z,21.60
2022-11-29T19:04:10.029Z,22.10
2022-11-29T19:06:39.975Z,22.30
2022-11-29T19:09:11.836Z,22.10
2022-11-29T19:11:39.134Z,22.20
2022-11-29T19:14:11.553Z,22.50
2022-11-29T19:16:41.534Z,22.90
2022-11-29T19:19:08.642Z,22.90
2022-11-29T19:21:36.101Z,22.70
2022-11-29T19:24:06.952Z,22.50
2022-11-29T19:26:34.878Z,22.60
2022-11-29T19:29:02.600Z,22.90
2022-11-29T19:31:29.760Z,22.70
2022-11-29T19:33:57.885Z,22.60
2022-11-29T19:36:30.525Z,22.30
2022-11-29T19:38:59.333Z,22.20
2022-11-29T19:41:29.305Z,21.90
2022-11-29T19:43:57.630Z,21.60
2022-11-29T19:46:27.237Z,21.60
2022-11-29T19:48:57.929Z,22.20
2022-11-29T19:51:25.999Z,21.80
2022-11-29T19:53:54.769Z,22.30
2022-11-29T19:56:22.676Z,22.30
2022-11-29T19:58:50.623Z,22.20
2022-11-29T20:01:20.547Z,22.00
2022-11-29T20:03:47.565Z,21.90
2022-11-29T20:06:14.996Z,21.90
2022-11-29T20:08:43.166Z,22.20
2022-11-29T20:11:22.329Z,22.10
2022-11-29T20:13:55.198Z,21.70
2022-11-29T20:16:22.778Z,21.70
2022-11-29T20:18:51.293Z,21.50
2022-11-29T20:21:30.262Z,21.30
2022-11-29T20:23:59.802Z,21.20
2022-11-29T20:26:28.031Z,21.10
2022-11-29T20:28:55.063Z,21.40
2022-11-29T20:31:23.319Z,21.70
2022-11-29T20:33:52.624Z,21.60
2022-11-29T20:36:42.385Z,21.50
2022-11-29T20:39:47.244Z,21.90
2022-11-29T20:42:36.471Z,21.90
2022-11-29T20:45:08.745Z,21.80
2022-11-29T20:48:01.054Z,21.40
2022-11-29T20:50:30.726Z,21.40
2022-11-29T20:53:25.033Z,21.40
2022-11-29T20:55:52.115Z,21.70
2022-11-29T20:58:19.880Z,21.60
2022-11-29T21:00:47.436Z,21.90
2022-11-29T21:03:18.408Z,21.60
2022-11-29T21:05:46.141Z,21.80
2022-11-29T21:08:14.561Z,22.50
2022-11-29T21:10:43.266Z,22.60
2022-11-29T21:13:14.246Z,22.70
2022-11-29T21:15:41.634Z,22.30
2022-11-29T21:18:16.486Z,22.30
2022-11-29T21:20:44.920Z,21.90
2022-11-29T21:23:27.509Z,21.90
2022-11-29T21:26:12.149Z,21.40
2022-11-29T21:28:47.915Z,21.40
2022-11-29T21:31:18.028Z,22.20
2022-11-29T21:33:45.423Z,22.10
2022-11-29T21:36:13.826Z,22.00
2022-11-29T21:38:41.024Z,21.90
2022-11-29T21:41:07.920Z,21.80
2022-11-29T21:44:04.978Z,21.90
2022-11-29T21:46:22.005Z,22.30
2022-11-29T21:48:50.165Z,22.20
2022-11-29T21:51:17.299Z,22.00
2022-11-29T21:53:44.282Z,22.20
2022-11-29T21:56:12.241Z,22.50
2022-11-29T21:58:39.916Z,22.60
2022-11-29T22:01:08.952Z,22.40
2022-11-29T22:03:36.377Z,22.70
2022-11-29T22:06:09.879Z,22.40
2022-11-29T22:08:41.169Z,22.10
2022-11-29T22:11:16.716Z,22.50
2022-11-29T22:14:03.096Z,22.50
2022-11-29T22:16:30.606Z,22.30
2022-11-29T22:18:57.635Z,22.20
2022-11-29T22:21:24.607Z,22.00
2022-11-29T22:23:52.816Z,21.80
2022-11-29T22:26:19.776Z,21.90
2022-11-29T22:28:46.702Z,21.60
2022-11-29T22:31:13.866Z,21.40
2022-11-29T22:33:41.177Z,21.40
2022-11-29T22:36:11.204Z,21.80
2022-11-29T22:38:39.115Z,22.00
2022-11-29T22:41:08.770Z,22.10
2022-11-29T22:43:36.718Z,22.00
2022-11-29T22:46:08.924Z,22.10
2022-11-29T22:48:38.900Z,22.40
2022-11-29T22:51:08.289Z,22.50
2022-11-29T22:53:40.784Z,22.40
2022-11-29T22:56:10.542Z,22.20
2022-11-29T22:58:37.784Z,21.90
2022-11-29T23:01:07.355Z,21.80
2022-11-29T23:03:38.419Z,21.70
2022-11-29T23:06:06.537Z,21.80
2022-11-29T23:08:34.705Z,21.50
2022-11-29T23:11:04.410Z,21.60
2022-11-29T23:13:35.766Z,21.60
2022-11-29T23:16:03.349Z,21.80
2022-11-29T23:18:30.568Z,21.60
2022-11-29T23:21:28.177Z,21.40
2022-11-29T23:23:56.758Z,21.40
2022-11-29T23:26:26.896Z,21.60
2022-11-29T23:28:56.121Z,21.60
2022-11-29T23:31:23.866Z,21.60
2022-11-29T23:33:51.016Z,21.80
2022-11-29T23:36:18.968Z,21.70
2022-11-29T23:38:46.513Z,21.50
2022-11-29T23:41:13.828Z,21.10
2022-11-29T23:43:41.853Z,21.10
2022-11-29T23:46:10.006Z,21.30
2022-11-29T23:48:36.873Z,21.50
2022-11-29T23:51:04.094Z,21.90
2022-11-29T23:53:31.944Z,21.80
2022-11-29T23:56:05.589Z,21.90
2022-11-29T23:58:33.745Z,21.90
